»·PEaware :: XOJ250 KSBA-KPSP

XOJ250 :: KSBA-KPSP

FLIGHT INFORMATION

Flight Status: Arrived
Operator:
XOJET
More flights by this operator :: More flights under this callsign
Pilot: Anonymous 13363 (13363)
Aircraft: BOMBARDIER BD-100 CHALLENGER 300
(CL30)
More flights by this aircraft type
Origin: KSBA Santa Barbara Mun
United States
Destination: KPSP Palm Springs Intl
United States
More flights between these airports :: More routes between these airports
Route: +KWANG5 HENER PMD V137 PSP
File this flight plan on PilotEdge
Remarks:
Altitude:
(Current/Filed)
23,000ft
Speed:
(Current/Filed)
460kts
Departed: 08-Dec-17 07:47 PM
Arrived: 08-Dec-17 08:26 PM
Distance/Time
Traveled:
170nm/0:39
Distance/Time
To Go:
Arrived

Flight Plot

Page will automatically refresh every two minutes.


Map Options




Map Legend


Flown Route
Filed Route
Departure Airport
Arrival Airport
Navaid (VOR, NDB)
Fix

Horizontal Profiles

Position Reports

Time Latitude Longitude Heading Altitude Ground
Speed
08-Dec-17 19:25 34.422770 -119.835798 162 19ft 0kts
08-Dec-17 19:26 34.422770 -119.835798 162 19ft 0kts
08-Dec-17 19:27 34.422770 -119.835798 162 19ft 0kts
08-Dec-17 19:28 34.422770 -119.835798 162 19ft 0kts
08-Dec-17 19:29 34.422770 -119.835798 162 19ft 0kts
08-Dec-17 19:30 34.422770 -119.835798 162 19ft 0kts
08-Dec-17 19:31 34.422770 -119.835798 162 19ft 0kts
08-Dec-17 19:32 34.422770 -119.835798 162 19ft 0kts
08-Dec-17 19:33 34.422770 -119.835798 162 19ft 0kts
08-Dec-17 19:34 34.422770 -119.835798 162 19ft 0kts
08-Dec-17 19:35 34.422770 -119.835798 162 19ft 0kts
08-Dec-17 19:36 34.422770 -119.835798 162 19ft 0kts
08-Dec-17 19:37 34.422770 -119.835798 162 19ft 0kts
08-Dec-17 19:38 34.422770 -119.835798 162 19ft 0kts
08-Dec-17 19:39 34.422770 -119.835798 162 19ft 0kts
08-Dec-17 19:40 34.422770 -119.835798 162 19ft 0kts
08-Dec-17 19:41 34.422770 -119.835798 162 19ft 0kts
08-Dec-17 19:42 34.422770 -119.835798 162 19ft 0kts
08-Dec-17 19:43 34.422770 -119.835798 162 19ft 0kts
08-Dec-17 19:44 34.422541 -119.835837 239 19ft 3kts
08-Dec-17 19:45 34.423378 -119.837352 356 19ft 9kts
08-Dec-17 19:46 34.426652 -119.838154 39 19ft 14kts
08-Dec-17 19:47 34.427009 -119.834473 355 19ft 0kts
08-Dec-17 19:48 34.427009 -119.834473 355 19ft 0kts
08-Dec-17 19:49 34.427009 -119.834473 355 19ft 0kts
08-Dec-17 19:50 34.427009 -119.834473 355 19ft 0kts
08-Dec-17 19:51 34.427901 -119.836072 269 19ft 34kts
08-Dec-17 19:52 34.417541 -119.890917 226 2190ft 253kts
08-Dec-17 19:53 34.353796 -119.882956 124 5925ft 292kts
08-Dec-17 19:54 34.345306 -119.790589 84 8255ft 250kts
08-Dec-17 19:55 34.348377 -119.735001 80 10992ft 185kts
08-Dec-17 19:56 34.356858 -119.647216 85 12749ft 335kts
08-Dec-17 19:57 34.316826 -119.535084 115 16234ft 382kts
08-Dec-17 19:58 34.269997 -119.417184 114 19723ft 403kts
08-Dec-17 19:59 34.225266 -119.303143 114 22469ft 421kts
08-Dec-17 20:00 34.195566 -119.169328 75 22944ft 447kts
08-Dec-17 20:01 34.261771 -119.046989 59 22988ft 439kts
08-Dec-17 20:02 34.317418 -118.917640 64 22989ft 435kts
08-Dec-17 20:03 34.367684 -118.785979 65 22987ft 432kts
08-Dec-17 20:04 34.416497 -118.654273 65 22998ft 430kts
08-Dec-17 20:05 34.464558 -118.523297 65 23102ft 427kts
08-Dec-17 20:06 34.512082 -118.393113 65 23102ft 428kts
08-Dec-17 20:07 34.553245 -118.279891 66 23071ft 429kts
08-Dec-17 20:08 34.601077 -118.147824 66 23070ft 429kts
08-Dec-17 20:10 34.597816 -118.010522 112 23069ft 431kts
08-Dec-17 20:11 34.545680 -117.880391 116 23070ft 432kts
08-Dec-17 20:12 34.488741 -117.752728 117 23070ft 432kts
08-Dec-17 20:13 34.430593 -117.625678 118 23071ft 433kts
08-Dec-17 20:14 34.372228 -117.499139 118 23195ft 432kts
08-Dec-17 20:15 34.313408 -117.372195 118 23206ft 437kts
08-Dec-17 20:16 34.258069 -117.253205 118 23206ft 441kts
08-Dec-17 20:17 34.197926 -117.124322 118 23180ft 444kts
08-Dec-17 20:18 34.137628 -116.995540 118 22627ft 447kts
08-Dec-17 20:19 34.076929 -116.866385 118 21635ft 438kts
08-Dec-17 20:20 34.018285 -116.742090 118 19417ft 410kts
08-Dec-17 20:21 33.965250 -116.630170 117 15056ft 347kts
08-Dec-17 20:22 33.918536 -116.543837 121 13423ft 299kts
08-Dec-17 20:23 33.876826 -116.469266 121 11065ft 290kts
08-Dec-17 20:24 33.833253 -116.391985 121 8496ft 281kts
08-Dec-17 20:25 33.792497 -116.315703 121 5814ft 270kts
08-Dec-17 20:26 33.747386 -116.251025 170 4274ft 257kts
08-Dec-17 20:27 33.685086 -116.298422 252 3966ft 282kts
08-Dec-17 20:28 33.689658 -116.386294 303 3960ft 242kts
08-Dec-17 20:29 33.742998 -116.431171 328 2923ft 230kts
08-Dec-17 20:30 33.788741 -116.471308 324 1623ft 174kts
08-Dec-17 20:31 33.821162 -116.500099 325 530ft 136kts
08-Dec-17 20:32 33.837236 -116.514159 2 483ft 7kts
08-Dec-17 20:33 33.837847 -116.513450 86 483ft 2kts
08-Dec-17 20:34 33.835625 -116.511306 144 483ft 18kts
08-Dec-17 20:35 33.830788 -116.506991 144 483ft 21kts
08-Dec-17 20:36 33.826209 -116.502922 143 483ft 19kts
08-Dec-17 20:37 33.824268 -116.500158 55 483ft 2kts
08-Dec-17 20:38 33.823716 -116.498194 143 483ft 10kts
08-Dec-17 20:39 33.823317 -116.497531 50 483ft 0kts
08-Dec-17 20:40 33.823317 -116.497531 50 483ft 0kts
08-Dec-17 20:41 33.823317 -116.497531 50 483ft 0kts
08-Dec-17 20:42 33.823317 -116.497531 50 483ft 0kts
08-Dec-17 20:43 33.823317 -116.497531 50 483ft 0kts
08-Dec-17 20:44 33.823317 -116.497531 50 483ft 0kts
08-Dec-17 20:45 33.823317 -116.497531 50 483ft 0kts
08-Dec-17 20:45 33.823317 -116.497531 50 483ft 0kts

Navigation Log

Ident Type
1. KSBA Airport
2. KWANG Fix
3. HENER Fix
4. PMD Navaid
5. PURPS Fix
6. HESPE Fix
7. HITOP Fix
8. ARRAN Fix
9. MORON Fix
10. WHETO Fix
11. PSP Navaid
12. KPSP Airport